Montalba, Texas
Current Conditions -  °F | °C
As of 6:15 AM on Sunday 23 Nov 2014 (Local Time) from KPSN Reporting Station
Haze Haze  
Wind Chill: 60°   Ceiling: 400
Heat Index: 60°   Visibility: 1.5mi
Dew Point: 60°   Wind: 0mph
Humidity: 100%   Direction: NA
Pressure: 29.63"   Gusts: NA
Location:  31.88°N, 95.73°W
Report Text: KPSN 231215Z AUTO 00000KT 1 1/2SM BR OVC004 15/15 A2963 RMK AO2 T01560156
Loading
Personal Weather Stations






























Interactive Weather Map New forecast layout! Learn more

10-Day Weather Forecast

Advertisements
Track Severe Weather on mobile